createdAt,value
2022-08-03T00:05:04.298Z,9.35
2022-08-03T00:12:06.903Z,7.72
2022-08-03T00:19:08.870Z,6.38
2022-08-03T00:26:10.901Z,6.50
2022-08-03T00:33:13.021Z,6.55
2022-08-03T00:40:18.691Z,7.90
2022-08-03T00:47:20.813Z,7.85
2022-08-03T00:54:23.606Z,8.20
2022-08-03T01:01:25.842Z,8.93
2022-08-03T01:08:53.782Z,5.88
2022-08-03T01:16:20.453Z,11.65
2022-08-03T01:23:58.781Z,7.13
2022-08-03T01:31:06.771Z,8.23
2022-08-03T01:38:16.157Z,8.80
2022-08-03T01:45:19.219Z,8.23
2022-08-03T01:52:22.108Z,7.18
2022-08-03T01:59:25.030Z,9.65
2022-08-03T02:07:00.646Z,8.13
2022-08-03T02:13:52.017Z,7.90
2022-08-03T02:20:55.315Z,8.38
2022-08-03T02:28:00.479Z,13.60
2022-08-03T02:35:04.837Z,8.80
2022-08-03T02:42:09.648Z,7.25
2022-08-03T02:49:40.478Z,7.97
2022-08-03T02:56:38.881Z,7.88
2022-08-03T03:03:44.861Z,8.18
2022-08-03T03:10:47.542Z,9.38
2022-08-03T03:17:50.492Z,9.48
2022-08-03T03:24:53.716Z,7.20
2022-08-03T03:31:57.496Z,8.27
2022-08-03T03:38:59.551Z,10.68
2022-08-03T03:46:17.631Z,8.15
2022-08-03T03:53:19.700Z,11.00
2022-08-03T04:00:21.874Z,12.55
2022-08-03T04:07:43.220Z,10.60
2022-08-03T04:14:47.137Z,9.30
2022-08-03T04:21:52.438Z,9.95
2022-08-03T04:28:55.318Z,9.20
2022-08-03T04:36:02.704Z,10.20
2022-08-03T04:43:06.246Z,13.20
2022-08-03T04:50:12.523Z,11.00
2022-08-03T04:57:23.220Z,12.35
2022-08-03T05:04:25.422Z,9.43
2022-08-03T05:11:27.421Z,9.25
2022-08-03T05:18:29.369Z,9.02
2022-08-03T05:25:31.255Z,10.18
2022-08-03T05:32:33.483Z,11.60
2022-08-03T05:39:35.597Z,13.75
2022-08-03T05:46:37.632Z,9.25
2022-08-03T05:53:44.013Z,13.27
2022-08-03T06:00:45.963Z,8.65
2022-08-03T06:07:47.896Z,6.38
2022-08-03T06:14:49.819Z,6.68
2022-08-03T06:21:51.825Z,7.45
2022-08-03T06:28:55.343Z,7.60
2022-08-03T06:35:57.501Z,7.85
2022-08-03T06:43:01.373Z,7.82
2022-08-03T06:50:16.297Z,15.27
2022-08-03T06:57:19.388Z,10.70
2022-08-03T07:04:21.333Z,9.45
2022-08-03T07:11:23.304Z,12.57
2022-08-03T07:18:29.778Z,15.93
2022-08-03T07:25:32.006Z,9.77
2022-08-03T07:32:33.982Z,10.43
2022-08-03T07:39:36.014Z,7.80
2022-08-03T07:46:38.103Z,6.43
2022-08-03T07:53:45.997Z,5.05
2022-08-03T08:00:53.588Z,5.60
2022-08-03T08:07:56.977Z,6.28
2022-08-03T08:14:59.119Z,9.13
2022-08-03T08:22:02.607Z,5.70
2022-08-03T08:29:05.966Z,12.32
2022-08-03T08:36:12.032Z,8.02
2022-08-03T08:43:16.796Z,5.65
2022-08-03T08:50:27.629Z,8.13
2022-08-03T08:57:42.832Z,6.40
2022-08-03T09:04:45.893Z,6.75
2022-08-03T09:12:00.418Z,5.95
2022-08-03T09:19:14.209Z,5.82
2022-08-03T09:26:27.338Z,3.65
2022-08-03T09:33:36.015Z,3.97
2022-08-03T09:40:38.556Z,4.78
2022-08-03T09:47:44.915Z,3.63
2022-08-03T09:54:53.429Z,8.48
2022-08-03T10:02:00.055Z,3.42
2022-08-03T10:09:15.988Z,5.85
2022-08-03T10:16:25.268Z,6.05
2022-08-03T10:23:33.179Z,6.35
2022-08-03T10:30:37.291Z,5.10
2022-08-03T10:37:59.150Z,5.00
2022-08-03T10:45:13.239Z,3.75
2022-08-03T10:52:30.448Z,3.50
2022-08-03T10:59:49.161Z,5.47
2022-08-03T11:07:26.771Z,5.20
2022-08-03T11:14:28.753Z,3.63
2022-08-03T11:21:50.539Z,3.78
2022-08-03T11:28:52.511Z,6.85
2022-08-03T11:36:02.221Z,5.40
2022-08-03T11:43:05.814Z,3.67
2022-08-03T11:50:08.266Z,5.50
2022-08-03T11:57:10.503Z,4.43
2022-08-03T12:04:12.438Z,4.60
2022-08-03T12:11:15.955Z,5.35
2022-08-03T12:18:18.958Z,4.75
2022-08-03T12:25:38.870Z,7.55
2022-08-03T12:32:43.278Z,6.43
2022-08-03T12:40:02.565Z,4.63
2022-08-03T12:47:07.578Z,5.45
2022-08-03T12:54:10.786Z,10.02
2022-08-03T13:01:13.938Z,4.80
2022-08-03T13:08:21.028Z,4.22
2022-08-03T13:15:24.422Z,8.07
2022-08-03T13:22:33.126Z,6.95
2022-08-03T13:29:35.619Z,5.60
2022-08-03T13:37:06.497Z,4.38
2022-08-03T13:44:26.190Z,4.78
2022-08-03T13:51:23.005Z,4.38
2022-08-03T13:58:25.184Z,5.22
2022-08-03T14:05:27.150Z,8.75
2022-08-03T14:12:34.525Z,5.27
2022-08-03T14:19:52.760Z,8.38
2022-08-03T14:27:08.681Z,3.40
2022-08-03T14:34:15.571Z,6.75
2022-08-03T14:41:25.390Z,4.63
2022-08-03T14:50:27.803Z,3.75
2022-08-03T14:56:09.837Z,3.78
2022-08-03T15:03:16.685Z,6.10
2022-08-03T15:10:19.837Z,2.53
2022-08-03T15:17:30.113Z,3.40
2022-08-03T15:24:35.023Z,5.40
2022-08-03T15:31:36.972Z,3.72
2022-08-03T15:38:39.059Z,4.43
2022-08-03T15:45:43.449Z,6.05
2022-08-03T15:52:45.920Z,5.53
2022-08-03T15:59:48.014Z,4.85
2022-08-03T16:06:50.469Z,3.05
2022-08-03T16:14:13.403Z,5.50
2022-08-03T16:21:19.318Z,5.20
2022-08-03T16:28:23.641Z,9.40
2022-08-03T16:35:25.748Z,4.35
2022-08-03T16:42:27.816Z,11.77
2022-08-03T16:49:53.819Z,6.63
2022-08-03T16:56:52.003Z,5.25
2022-08-03T17:04:04.733Z,7.88
2022-08-03T17:11:09.302Z,8.57
2022-08-03T17:18:11.723Z,9.10
2022-08-03T17:25:22.204Z,4.55
2022-08-03T17:32:42.656Z,8.20
2022-08-03T17:39:58.809Z,7.13
2022-08-03T17:47:01.828Z,7.38
2022-08-03T17:54:18.286Z,7.07
2022-08-03T18:01:59.273Z,7.20
2022-08-03T18:10:06.793Z,5.50
2022-08-03T18:16:38.122Z,6.53
2022-08-03T18:23:42.069Z,12.38
2022-08-03T18:30:53.955Z,13.43
2022-08-03T18:37:58.901Z,17.58
2022-08-03T18:45:15.018Z,17.15
2022-08-03T18:52:52.938Z,15.05
2022-08-03T19:00:14.267Z,17.20
2022-08-03T19:07:25.380Z,18.58
2022-08-03T19:14:56.761Z,14.90
2022-08-03T19:22:00.378Z,17.42
2022-08-03T19:29:14.851Z,17.02
2022-08-03T19:36:18.629Z,10.90
2022-08-03T19:51:12.251Z,8.38
2022-08-03T19:58:34.931Z,13.70
2022-08-03T20:05:45.120Z,14.77
2022-08-03T20:12:57.508Z,10.55
2022-08-03T20:20:01.310Z,16.92
2022-08-03T20:27:08.336Z,21.25
2022-08-03T20:34:10.278Z,14.45
2022-08-03T20:41:12.323Z,9.93
2022-08-03T20:48:15.994Z,15.70
2022-08-03T20:55:20.287Z,12.55
2022-08-03T21:02:30.426Z,8.38
2022-08-03T21:09:42.237Z,11.52
2022-08-03T21:13:10.549Z,9.27
2022-08-03T21:16:46.641Z,12.85
2022-08-03T21:23:53.886Z,10.77
2022-08-03T21:30:57.627Z,9.02
2022-08-03T21:38:19.262Z,10.27
2022-08-03T21:45:21.281Z,11.32
2022-08-03T21:52:24.277Z,11.77
2022-08-03T21:59:27.006Z,12.38
2022-08-03T22:06:30.511Z,14.20
2022-08-03T22:13:44.261Z,16.08
2022-08-03T22:20:54.040Z,11.15
2022-08-03T22:27:56.996Z,11.73
2022-08-03T22:35:00.161Z,11.27
2022-08-03T22:42:05.627Z,10.82
2022-08-03T22:49:08.595Z,11.52
2022-08-03T22:56:10.679Z,11.70
2022-08-03T23:03:14.439Z,11.55
2022-08-03T23:10:16.649Z,11.77
2022-08-03T23:17:20.218Z,8.30
2022-08-03T23:24:29.798Z,11.00
2022-08-03T23:31:32.422Z,8.98
2022-08-03T23:38:36.363Z,7.70
2022-08-03T23:45:39.833Z,8.38
2022-08-03T23:53:08.942Z,7.15
